createdAt,value
2023-02-13T00:00:03.427Z,104007.44
2023-02-13T00:10:25.322Z,103998.81
2023-02-13T00:20:57.045Z,104008.28
2023-02-13T00:31:20.415Z,103995.19
2023-02-13T00:41:41.858Z,103987.28
2023-02-13T00:52:03.272Z,103971.94
2023-02-13T01:02:24.957Z,103980.59
2023-02-13T01:12:46.548Z,103982.22
2023-02-13T01:23:07.979Z,103977.94
2023-02-13T01:33:29.740Z,103978.75
2023-02-13T01:43:53.676Z,103970.78
2023-02-13T01:54:23.165Z,103964.63
2023-02-13T02:04:45.565Z,103947.34
2023-02-13T02:15:07.461Z,103950.88
2023-02-13T02:25:37.944Z,103941.38
2023-02-13T02:35:59.294Z,103946.66
2023-02-13T02:47:13.055Z,103938.91
2023-02-13T02:57:56.922Z,103918.03
2023-02-13T03:08:38.788Z,103924.78
2023-02-13T03:19:18.920Z,103921.47
2023-02-13T03:30:05.656Z,103913.91
2023-02-13T03:41:00.685Z,103901.00
2023-02-13T03:51:24.765Z,103894.13
2023-02-13T04:01:49.355Z,103902.72
2023-02-13T04:12:10.763Z,103916.50
2023-02-13T04:22:32.130Z,103914.84
2023-02-13T04:32:53.521Z,103915.63
2023-02-13T04:43:14.869Z,103924.31
2023-02-13T04:53:36.216Z,103920.84
2023-02-13T05:03:57.573Z,103918.31
2023-02-13T05:14:19.078Z,103917.44
2023-02-13T05:24:40.432Z,103930.31
2023-02-13T05:35:04.333Z,103933.72
2023-02-13T05:45:25.950Z,103925.78
2023-02-13T05:55:47.305Z,103939.53
2023-02-13T06:06:09.233Z,103925.09
2023-02-13T06:16:31.169Z,103943.16
2023-02-13T06:26:52.605Z,103955.94
2023-02-13T06:37:13.973Z,103957.69
2023-02-13T06:47:35.743Z,103974.94
2023-02-13T06:57:57.086Z,103973.34
2023-02-13T07:08:19.135Z,103975.97
2023-02-13T07:18:40.550Z,103975.91
2023-02-13T07:29:11.584Z,103976.78
2023-02-13T07:39:33.571Z,103980.09
2023-02-13T07:49:55.004Z,103985.25
2023-02-13T08:00:17.165Z,103987.00
2023-02-13T08:10:58.799Z,103983.75
2023-02-13T08:21:20.160Z,103985.41
2023-02-13T08:31:41.708Z,103978.59
2023-02-13T08:42:04.106Z,103987.25
2023-02-13T08:52:25.615Z,103994.13
2023-02-13T09:02:47.058Z,103998.47
2023-02-13T09:13:08.636Z,104007.75
2023-02-13T09:23:34.128Z,104005.25
2023-02-13T09:33:55.569Z,104005.31
2023-02-13T09:44:35.430Z,104012.97
2023-02-13T09:54:56.827Z,104007.84
2023-02-13T10:05:30.346Z,104014.00
2023-02-13T10:15:57.783Z,104012.19
2023-02-13T10:26:21.173Z,104021.66
2023-02-13T10:36:46.981Z,104015.66
2023-02-13T10:47:17.707Z,104028.06
2023-02-13T10:57:58.071Z,104011.84
2023-02-13T11:08:19.490Z,103999.03
2023-02-13T11:18:44.118Z,103978.63
2023-02-13T11:29:24.191Z,103955.53
2023-02-13T11:39:46.644Z,103964.38
2023-02-13T11:50:28.479Z,103963.53
2023-02-13T12:00:49.857Z,103971.47
2023-02-13T12:11:23.650Z,103958.84
2023-02-13T12:21:45.003Z,103957.09
2023-02-13T12:32:25.378Z,103947.59
2023-02-13T12:43:05.688Z,103934.53
2023-02-13T12:53:28.398Z,103933.84
2023-02-13T13:03:50.846Z,103929.31
2023-02-13T13:14:17.849Z,103921.56
2023-02-13T13:24:39.218Z,103912.84
2023-02-13T13:35:00.767Z,103897.44
2023-02-13T13:45:28.282Z,103886.28
2023-02-13T13:55:49.620Z,103885.34
2023-02-13T14:06:12.802Z,103885.44
2023-02-13T14:16:42.078Z,103881.34
2023-02-13T14:27:06.185Z,103876.06
2023-02-13T14:37:31.032Z,103854.56
2023-02-13T14:47:53.975Z,103858.06
2023-02-13T14:58:18.818Z,103838.38
2023-02-13T15:08:47.957Z,103828.16
2023-02-13T15:19:14.717Z,103830.69
2023-02-13T15:29:49.311Z,103826.41
2023-02-13T15:40:28.085Z,103823.88
2023-02-13T15:50:49.467Z,103825.44
2023-02-13T16:01:11.118Z,103827.06
2023-02-13T16:11:39.396Z,103836.44
2023-02-13T16:22:07.573Z,103833.84
2023-02-13T16:32:34.240Z,103826.88
2023-02-13T16:43:15.581Z,103841.44
2023-02-13T16:53:37.793Z,103833.63
2023-02-13T17:03:59.312Z,103844.59
2023-02-13T17:14:20.867Z,103843.69
2023-02-13T17:24:42.233Z,103844.41
2023-02-13T17:35:03.754Z,103838.25
2023-02-13T17:45:26.926Z,103836.50
2023-02-13T17:55:48.297Z,103839.19
2023-02-13T18:06:13.941Z,103836.66
2023-02-13T18:16:38.105Z,103840.00
2023-02-13T18:26:59.455Z,103833.97
2023-02-13T18:37:21.348Z,103840.81
2023-02-13T18:47:42.829Z,103851.75
2023-02-13T18:58:04.221Z,103851.28
2023-02-13T19:08:25.591Z,103848.97
2023-02-13T19:18:48.175Z,103837.19
2023-02-13T19:29:09.659Z,103841.59
2023-02-13T19:39:31.040Z,103847.19
2023-02-13T19:49:53.443Z,103843.31
2023-02-13T20:00:15.298Z,103836.06
2023-02-13T20:10:36.837Z,103826.19
2023-02-13T20:20:58.550Z,103823.41
2023-02-13T20:31:21.483Z,103825.66
2023-02-13T20:41:48.408Z,103825.47
2023-02-13T20:52:09.875Z,103820.91
2023-02-13T21:02:31.343Z,103835.25
2023-02-13T21:12:52.843Z,103815.91
2023-02-13T21:23:14.216Z,103821.66
2023-02-13T21:33:36.438Z,103826.28
2023-02-13T21:43:57.788Z,103824.94
2023-02-13T21:54:19.166Z,103828.84
2023-02-13T22:04:41.901Z,103823.38
2023-02-13T22:15:04.253Z,103835.81
2023-02-13T22:25:25.671Z,103830.19
2023-02-13T22:35:47.312Z,103832.47
2023-02-13T22:46:13.228Z,103833.13
2023-02-13T22:56:34.684Z,103837.22
2023-02-13T23:06:56.145Z,103843.34
2023-02-13T23:17:36.152Z,103847.50
2023-02-13T23:27:58.113Z,103845.59
2023-02-13T23:38:19.672Z,103848.63
2023-02-13T23:48:41.031Z,103844.19
2023-02-13T23:59:02.424Z,103845.69
